Schuler, Canada
Current Conditions -  °F | °C
As of 10:00 AM on Friday 24 Oct 2014 (Local Time) from CYXH Reporting Station
Broken Clouds Broken Clouds  
Wind Chill: 52°   Ceiling: 28000
Heat Index: 52°   Visibility: 30mi
Dew Point: 28°   Wind: 17mph
Humidity: 41%   Direction: 260°W
Pressure: 29.9"   Gusts: 29mph
Location:  50.37°N, 110.09°W
Report Text: CYXH 241600Z 26015G25KT 30SM BKN280 11/M02 A2990 RMK CI6 SLP131 DENSITY ALT 2400FT
Loading
Personal Weather Stations






























Interactive Weather Map
Tropical Storm Tracking
New forecast layout! Learn more

10-Day Weather Forecast

Advertisements
Track Severe Weather on mobile